sensor_id;sensor_type;location;lat;lon;timestamp;P1;durP1;ratioP1;P2;durP2;ratioP2
30677;SDS011;17437;47.188;8.896;2023-07-13T00:01:00;4.80;;;3.08;;
30677;SDS011;17437;47.188;8.896;2023-07-13T00:03:32;6.50;;;2.52;;
30677;SDS011;17437;47.188;8.896;2023-07-13T00:06:04;4.55;;;2.77;;
30677;SDS011;17437;47.188;8.896;2023-07-13T00:08:37;5.67;;;2.92;;
30677;SDS011;17437;47.188;8.896;2023-07-13T00:11:09;3.50;;;2.77;;
30677;SDS011;17437;47.188;8.896;2023-07-13T00:13:40;7.08;;;3.62;;
30677;SDS011;17437;47.188;8.896;2023-07-13T00:16:13;6.30;;;2.95;;
30677;SDS011;17437;47.188;8.896;2023-07-13T00:18:45;4.83;;;3.77;;
30677;SDS011;17437;47.188;8.896;2023-07-13T00:21:17;5.17;;;2.65;;
30677;SDS011;17437;47.188;8.896;2023-07-13T00:23:49;5.58;;;3.02;;
30677;SDS011;17437;47.188;8.896;2023-07-13T00:26:21;6.78;;;3.58;;
30677;SDS011;17437;47.188;8.896;2023-07-13T00:28:52;6.65;;;4.05;;
30677;SDS011;17437;47.188;8.896;2023-07-13T00:31:24;4.92;;;3.70;;
30677;SDS011;17437;47.188;8.896;2023-07-13T00:33:56;4.90;;;3.67;;
30677;SDS011;17437;47.188;8.896;2023-07-13T00:36:29;5.28;;;3.70;;
30677;SDS011;17437;47.188;8.896;2023-07-13T00:39:02;6.80;;;3.90;;
30677;SDS011;17437;47.188;8.896;2023-07-13T00:41:33;7.78;;;3.83;;
30677;SDS011;17437;47.188;8.896;2023-07-13T00:44:08;5.92;;;3.92;;
30677;SDS011;17437;47.188;8.896;2023-07-13T00:46:42;6.83;;;4.28;;
30677;SDS011;17437;47.188;8.896;2023-07-13T00:49:15;6.67;;;3.62;;
30677;SDS011;17437;47.188;8.896;2023-07-13T00:51:50;3.85;;;2.52;;
30677;SDS011;17437;47.188;8.896;2023-07-13T00:54:26;4.90;;;2.60;;
30677;SDS011;17437;47.188;8.896;2023-07-13T00:57:00;3.85;;;2.72;;
30677;SDS011;17437;47.188;8.896;2023-07-13T00:59:34;3.92;;;2.60;;
30677;SDS011;17437;47.188;8.896;2023-07-13T01:02:08;3.75;;;2.80;;
30677;SDS011;17437;47.188;8.896;2023-07-13T01:04:41;8.83;;;3.33;;
30677;SDS011;17437;47.188;8.896;2023-07-13T01:07:13;6.17;;;3.45;;
30677;SDS011;17437;47.188;8.896;2023-07-13T01:09:45;5.15;;;3.27;;
30677;SDS011;17437;47.188;8.896;2023-07-13T01:12:16;5.50;;;3.37;;
30677;SDS011;17437;47.188;8.896;2023-07-13T01:14:48;5.15;;;2.65;;
30677;SDS011;17437;47.188;8.896;2023-07-13T01:17:26;3.72;;;2.80;;
30677;SDS011;17437;47.188;8.896;2023-07-13T01:19:59;7.37;;;3.40;;
30677;SDS011;17437;47.188;8.896;2023-07-13T01:22:31;4.15;;;2.65;;
30677;SDS011;17437;47.188;8.896;2023-07-13T01:27:45;5.45;;;2.90;;
30677;SDS011;17437;47.188;8.896;2023-07-13T01:30:16;4.15;;;3.10;;
30677;SDS011;17437;47.188;8.896;2023-07-13T01:32:48;3.50;;;2.70;;
30677;SDS011;17437;47.188;8.896;2023-07-13T01:35:20;7.67;;;3.15;;
30677;SDS011;17437;47.188;8.896;2023-07-13T01:37:52;6.50;;;3.22;;
30677;SDS011;17437;47.188;8.896;2023-07-13T01:40:26;6.37;;;2.50;;
30677;SDS011;17437;47.188;8.896;2023-07-13T01:42:58;6.08;;;2.92;;
30677;SDS011;17437;47.188;8.896;2023-07-13T01:45:31;4.28;;;2.45;;
30677;SDS011;17437;47.188;8.896;2023-07-13T01:48:04;3.47;;;2.60;;
30677;SDS011;17437;47.188;8.896;2023-07-13T01:50:36;3.90;;;2.90;;
30677;SDS011;17437;47.188;8.896;2023-07-13T01:53:09;3.62;;;2.70;;
30677;SDS011;17437;47.188;8.896;2023-07-13T01:55:41;4.25;;;2.85;;
30677;SDS011;17437;47.188;8.896;2023-07-13T01:58:12;6.50;;;2.90;;
30677;SDS011;17437;47.188;8.896;2023-07-13T02:00:44;3.95;;;2.33;;
30677;SDS011;17437;47.188;8.896;2023-07-13T02:03:19;3.92;;;2.22;;
30677;SDS011;17437;47.188;8.896;2023-07-13T02:05:51;5.83;;;3.70;;
30677;SDS011;17437;47.188;8.896;2023-07-13T02:08:22;5.45;;;3.30;;
30677;SDS011;17437;47.188;8.896;2023-07-13T02:10:54;3.60;;;2.35;;
30677;SDS011;17437;47.188;8.896;2023-07-13T02:13:26;3.47;;;2.70;;
30677;SDS011;17437;47.188;8.896;2023-07-13T02:15:57;9.53;;;3.45;;
30677;SDS011;17437;47.188;8.896;2023-07-13T02:18:29;2.83;;;2.12;;
30677;SDS011;17437;47.188;8.896;2023-07-13T02:21:01;4.87;;;2.58;;
30677;SDS011;17437;47.188;8.896;2023-07-13T02:23:33;6.72;;;3.37;;
30677;SDS011;17437;47.188;8.896;2023-07-13T02:26:05;4.30;;;2.50;;
30677;SDS011;17437;47.188;8.896;2023-07-13T02:28:36;4.45;;;3.22;;
30677;SDS011;17437;47.188;8.896;2023-07-13T02:31:09;3.20;;;2.10;;
30677;SDS011;17437;47.188;8.896;2023-07-13T02:33:42;5.22;;;3.20;;
30677;SDS011;17437;47.188;8.896;2023-07-13T02:36:14;3.42;;;2.60;;
30677;SDS011;17437;47.188;8.896;2023-07-13T02:38:49;6.92;;;3.80;;
30677;SDS011;17437;47.188;8.896;2023-07-13T02:41:21;8.23;;;5.40;;
30677;SDS011;17437;47.188;8.896;2023-07-13T02:43:52;7.47;;;3.92;;
30677;SDS011;17437;47.188;8.896;2023-07-13T02:46:26;4.78;;;2.85;;
30677;SDS011;17437;47.188;8.896;2023-07-13T02:48:57;13.32;;;3.52;;
30677;SDS011;17437;47.188;8.896;2023-07-13T02:51:29;6.20;;;3.47;;
30677;SDS011;17437;47.188;8.896;2023-07-13T02:54:03;5.30;;;3.33;;
30677;SDS011;17437;47.188;8.896;2023-07-13T02:56:37;5.72;;;3.87;;
30677;SDS011;17437;47.188;8.896;2023-07-13T02:59:08;7.80;;;4.00;;
30677;SDS011;17437;47.188;8.896;2023-07-13T03:01:41;7.92;;;3.98;;
30677;SDS011;17437;47.188;8.896;2023-07-13T03:04:12;11.57;;;4.83;;
30677;SDS011;17437;47.188;8.896;2023-07-13T03:06:46;9.48;;;4.42;;
30677;SDS011;17437;47.188;8.896;2023-07-13T03:09:18;6.12;;;3.50;;
30677;SDS011;17437;47.188;8.896;2023-07-13T03:11:49;6.35;;;3.45;;
30677;SDS011;17437;47.188;8.896;2023-07-13T03:14:24;4.80;;;3.67;;
30677;SDS011;17437;47.188;8.896;2023-07-13T03:16:56;4.55;;;3.27;;
30677;SDS011;17437;47.188;8.896;2023-07-13T03:19:28;5.90;;;4.75;;
30677;SDS011;17437;47.188;8.896;2023-07-13T03:21:59;9.68;;;4.08;;
30677;SDS011;17437;47.188;8.896;2023-07-13T03:24:32;6.15;;;3.83;;
30677;SDS011;17437;47.188;8.896;2023-07-13T03:27:07;7.22;;;4.25;;
30677;SDS011;17437;47.188;8.896;2023-07-13T03:29:39;10.95;;;4.33;;
30677;SDS011;17437;47.188;8.896;2023-07-13T03:32:11;6.50;;;4.10;;
30677;SDS011;17437;47.188;8.896;2023-07-13T03:34:42;6.72;;;3.33;;
30677;SDS011;17437;47.188;8.896;2023-07-13T03:37:14;4.80;;;3.70;;
30677;SDS011;17437;47.188;8.896;2023-07-13T03:39:46;6.92;;;3.80;;
30677;SDS011;17437;47.188;8.896;2023-07-13T03:42:18;11.12;;;4.17;;
30677;SDS011;17437;47.188;8.896;2023-07-13T03:44:49;5.85;;;4.00;;
30677;SDS011;17437;47.188;8.896;2023-07-13T03:47:21;5.03;;;4.40;;
30677;SDS011;17437;47.188;8.896;2023-07-13T03:49:53;5.60;;;4.03;;
30677;SDS011;17437;47.188;8.896;2023-07-13T03:52:25;6.37;;;4.67;;
30677;SDS011;17437;47.188;8.896;2023-07-13T03:54:56;8.65;;;4.90;;
30677;SDS011;17437;47.188;8.896;2023-07-13T03:57:28;7.53;;;4.15;;
30677;SDS011;17437;47.188;8.896;2023-07-13T04:00:00;9.08;;;4.85;;
30677;SDS011;17437;47.188;8.896;2023-07-13T04:02:32;7.20;;;4.33;;
30677;SDS011;17437;47.188;8.896;2023-07-13T04:05:05;11.33;;;6.95;;
30677;SDS011;17437;47.188;8.896;2023-07-13T04:07:37;9.38;;;4.75;;
30677;SDS011;17437;47.188;8.896;2023-07-13T04:10:09;5.92;;;4.03;;
30677;SDS011;17437;47.188;8.896;2023-07-13T04:12:41;7.85;;;5.35;;
30677;SDS011;17437;47.188;8.896;2023-07-13T04:15:13;6.42;;;3.67;;
30677;SDS011;17437;47.188;8.896;2023-07-13T04:17:45;8.20;;;4.62;;
30677;SDS011;17437;47.188;8.896;2023-07-13T04:20:16;7.12;;;4.70;;
30677;SDS011;17437;47.188;8.896;2023-07-13T04:22:49;10.20;;;4.80;;
30677;SDS011;17437;47.188;8.896;2023-07-13T04:25:22;7.65;;;5.28;;
30677;SDS011;17437;47.188;8.896;2023-07-13T04:27:54;7.78;;;4.35;;
30677;SDS011;17437;47.188;8.896;2023-07-13T04:30:26;5.80;;;4.17;;
30677;SDS011;17437;47.188;8.896;2023-07-13T04:32:58;6.47;;;3.65;;
30677;SDS011;17437;47.188;8.896;2023-07-13T04:35:29;7.60;;;4.22;;
30677;SDS011;17437;47.188;8.896;2023-07-13T04:38:01;9.85;;;4.00;;
30677;SDS011;17437;47.188;8.896;2023-07-13T04:40:32;5.58;;;3.72;;
30677;SDS011;17437;47.188;8.896;2023-07-13T04:43:04;6.20;;;4.35;;
30677;SDS011;17437;47.188;8.896;2023-07-13T04:45:36;4.87;;;3.77;;
30677;SDS011;17437;47.188;8.896;2023-07-13T04:48:08;7.10;;;3.85;;
30677;SDS011;17437;47.188;8.896;2023-07-13T04:50:40;6.17;;;4.70;;
30677;SDS011;17437;47.188;8.896;2023-07-13T04:53:15;5.37;;;4.10;;
30677;SDS011;17437;47.188;8.896;2023-07-13T04:55:48;4.85;;;3.52;;
30677;SDS011;17437;47.188;8.896;2023-07-13T04:58:22;6.00;;;4.37;;
30677;SDS011;17437;47.188;8.896;2023-07-13T05:00:59;4.62;;;3.60;;
30677;SDS011;17437;47.188;8.896;2023-07-13T05:03:32;5.50;;;3.75;;
30677;SDS011;17437;47.188;8.896;2023-07-13T05:06:09;5.50;;;3.25;;
30677;SDS011;17437;47.188;8.896;2023-07-13T05:08:43;5.55;;;3.58;;
30677;SDS011;17437;47.188;8.896;2023-07-13T05:11:18;11.33;;;4.67;;
30677;SDS011;17437;47.188;8.896;2023-07-13T05:13:54;8.23;;;3.95;;
30677;SDS011;17437;47.188;8.896;2023-07-13T05:16:30;7.35;;;4.22;;
30677;SDS011;17437;47.188;8.896;2023-07-13T05:19:07;6.90;;;3.20;;
30677;SDS011;17437;47.188;8.896;2023-07-13T05:21:45;20.00;;;8.30;;
30677;SDS011;17437;47.188;8.896;2023-07-13T05:24:24;9.00;;;4.45;;
30677;SDS011;17437;47.188;8.896;2023-07-13T05:27:01;5.22;;;3.60;;
30677;SDS011;17437;47.188;8.896;2023-07-13T05:29:48;4.87;;;3.47;;
30677;SDS011;17437;47.188;8.896;2023-07-13T05:32:32;8.00;;;6.12;;
30677;SDS011;17437;47.188;8.896;2023-07-13T05:35:12;7.83;;;3.98;;
30677;SDS011;17437;47.188;8.896;2023-07-13T05:37:53;9.18;;;5.90;;
30677;SDS011;17437;47.188;8.896;2023-07-13T05:40:30;10.85;;;4.22;;
30677;SDS011;17437;47.188;8.896;2023-07-13T05:43:04;7.20;;;4.17;;
30677;SDS011;17437;47.188;8.896;2023-07-13T05:45:49;9.50;;;4.12;;
30677;SDS011;17437;47.188;8.896;2023-07-13T05:48:29;6.12;;;4.62;;
30677;SDS011;17437;47.188;8.896;2023-07-13T05:51:04;5.67;;;4.17;;
30677;SDS011;17437;47.188;8.896;2023-07-13T05:53:40;5.87;;;4.03;;
30677;SDS011;17437;47.188;8.896;2023-07-13T05:56:14;6.00;;;4.05;;
30677;SDS011;17437;47.188;8.896;2023-07-13T05:58:53;7.53;;;3.98;;
30677;SDS011;17437;47.188;8.896;2023-07-13T06:01:27;9.05;;;4.50;;
30677;SDS011;17437;47.188;8.896;2023-07-13T06:04:00;5.58;;;3.58;;
30677;SDS011;17437;47.188;8.896;2023-07-13T06:06:32;5.95;;;2.95;;
30677;SDS011;17437;47.188;8.896;2023-07-13T06:09:03;4.92;;;3.62;;
30677;SDS011;17437;47.188;8.896;2023-07-13T06:11:35;5.55;;;3.70;;
30677;SDS011;17437;47.188;8.896;2023-07-13T06:14:07;8.58;;;4.33;;
30677;SDS011;17437;47.188;8.896;2023-07-13T06:16:39;7.83;;;4.40;;
30677;SDS011;17437;47.188;8.896;2023-07-13T06:19:11;8.95;;;4.17;;
30677;SDS011;17437;47.188;8.896;2023-07-13T06:21:43;8.43;;;4.22;;
30677;SDS011;17437;47.188;8.896;2023-07-13T06:24:14;6.03;;;4.65;;
30677;SDS011;17437;47.188;8.896;2023-07-13T06:26:47;6.95;;;5.03;;
30677;SDS011;17437;47.188;8.896;2023-07-13T06:29:23;6.85;;;3.40;;
30677;SDS011;17437;47.188;8.896;2023-07-13T06:31:59;10.43;;;4.45;;
30677;SDS011;17437;47.188;8.896;2023-07-13T06:34:31;3.17;;;2.67;;
30677;SDS011;17437;47.188;8.896;2023-07-13T06:37:02;4.17;;;2.87;;
30677;SDS011;17437;47.188;8.896;2023-07-13T06:39:36;6.90;;;2.85;;
30677;SDS011;17437;47.188;8.896;2023-07-13T06:42:08;7.85;;;4.15;;
30677;SDS011;17437;47.188;8.896;2023-07-13T06:44:41;6.45;;;4.05;;
30677;SDS011;17437;47.188;8.896;2023-07-13T06:47:13;7.03;;;4.28;;
30677;SDS011;17437;47.188;8.896;2023-07-13T06:49:45;7.12;;;4.00;;
30677;SDS011;17437;47.188;8.896;2023-07-13T06:52:18;5.15;;;3.37;;
30677;SDS011;17437;47.188;8.896;2023-07-13T06:54:52;8.68;;;3.70;;
30677;SDS011;17437;47.188;8.896;2023-07-13T06:57:24;6.67;;;4.22;;
30677;SDS011;17437;47.188;8.896;2023-07-13T06:59:56;8.25;;;3.90;;
30677;SDS011;17437;47.188;8.896;2023-07-13T07:02:28;5.10;;;3.95;;
30677;SDS011;17437;47.188;8.896;2023-07-13T07:05:00;7.95;;;4.08;;
30677;SDS011;17437;47.188;8.896;2023-07-13T07:07:31;5.67;;;4.72;;
30677;SDS011;17437;47.188;8.896;2023-07-13T07:10:05;4.67;;;3.87;;
30677;SDS011;17437;47.188;8.896;2023-07-13T07:12:37;5.40;;;4.45;;
30677;SDS011;17437;47.188;8.896;2023-07-13T07:15:09;6.62;;;4.03;;
30677;SDS011;17437;47.188;8.896;2023-07-13T07:17:42;4.83;;;3.22;;
30677;SDS011;17437;47.188;8.896;2023-07-13T07:20:14;9.60;;;3.17;;
30677;SDS011;17437;47.188;8.896;2023-07-13T07:22:45;6.75;;;4.22;;
30677;SDS011;17437;47.188;8.896;2023-07-13T07:25:18;7.70;;;3.87;;
30677;SDS011;17437;47.188;8.896;2023-07-13T07:27:49;9.15;;;4.20;;
30677;SDS011;17437;47.188;8.896;2023-07-13T07:30:24;7.95;;;4.42;;
30677;SDS011;17437;47.188;8.896;2023-07-13T07:32:57;4.75;;;3.87;;
30677;SDS011;17437;47.188;8.896;2023-07-13T07:35:32;6.15;;;3.45;;
30677;SDS011;17437;47.188;8.896;2023-07-13T07:38:06;5.47;;;3.25;;
30677;SDS011;17437;47.188;8.896;2023-07-13T07:40:38;6.25;;;3.12;;
30677;SDS011;17437;47.188;8.896;2023-07-13T07:43:12;6.22;;;3.37;;
30677;SDS011;17437;47.188;8.896;2023-07-13T07:45:44;4.55;;;2.80;;
30677;SDS011;17437;47.188;8.896;2023-07-13T07:48:16;4.92;;;2.47;;
30677;SDS011;17437;47.188;8.896;2023-07-13T07:50:48;4.45;;;2.90;;
30677;SDS011;17437;47.188;8.896;2023-07-13T07:53:20;5.35;;;2.92;;
30677;SDS011;17437;47.188;8.896;2023-07-13T07:55:52;6.12;;;2.47;;
30677;SDS011;17437;47.188;8.896;2023-07-13T07:58:25;10.60;;;4.05;;
30677;SDS011;17437;47.188;8.896;2023-07-13T08:01:03;5.45;;;3.35;;
30677;SDS011;17437;47.188;8.896;2023-07-13T08:03:37;5.53;;;2.22;;
30677;SDS011;17437;47.188;8.896;2023-07-13T08:06:10;6.42;;;2.22;;
30677;SDS011;17437;47.188;8.896;2023-07-13T08:08:43;2.65;;;2.05;;
30677;SDS011;17437;47.188;8.896;2023-07-13T08:11:16;4.30;;;2.10;;
30677;SDS011;17437;47.188;8.896;2023-07-13T08:13:50;3.45;;;2.35;;
30677;SDS011;17437;47.188;8.896;2023-07-13T08:16:27;2.72;;;2.40;;
30677;SDS011;17437;47.188;8.896;2023-07-13T08:19:01;2.37;;;1.72;;
30677;SDS011;17437;47.188;8.896;2023-07-13T08:21:33;4.00;;;1.75;;
30677;SDS011;17437;47.188;8.896;2023-07-13T08:24:05;2.00;;;1.65;;
30677;SDS011;17437;47.188;8.896;2023-07-13T08:26:38;2.45;;;1.70;;
30677;SDS011;17437;47.188;8.896;2023-07-13T08:29:11;2.12;;;1.55;;
30677;SDS011;17437;47.188;8.896;2023-07-13T08:31:44;3.65;;;1.62;;
30677;SDS011;17437;47.188;8.896;2023-07-13T08:34:15;2.72;;;1.50;;
30677;SDS011;17437;47.188;8.896;2023-07-13T08:36:47;2.67;;;1.85;;
30677;SDS011;17437;47.188;8.896;2023-07-13T08:39:19;3.50;;;2.00;;
30677;SDS011;17437;47.188;8.896;2023-07-13T08:41:52;2.42;;;1.67;;
30677;SDS011;17437;47.188;8.896;2023-07-13T08:44:27;2.67;;;1.60;;
30677;SDS011;17437;47.188;8.896;2023-07-13T08:47:03;4.42;;;2.47;;
30677;SDS011;17437;47.188;8.896;2023-07-13T08:49:36;4.03;;;1.85;;
30677;SDS011;17437;47.188;8.896;2023-07-13T08:52:10;2.47;;;1.87;;
30677;SDS011;17437;47.188;8.896;2023-07-13T08:54:44;2.85;;;1.85;;
30677;SDS011;17437;47.188;8.896;2023-07-13T08:57:19;5.78;;;3.58;;
30677;SDS011;17437;47.188;8.896;2023-07-13T08:59:52;2.25;;;1.52;;
30677;SDS011;17437;47.188;8.896;2023-07-13T09:02:26;15.93;;;11.83;;
30677;SDS011;17437;47.188;8.896;2023-07-13T09:04:59;5.22;;;3.55;;
30677;SDS011;17437;47.188;8.896;2023-07-13T09:07:39;2.50;;;1.75;;
30677;SDS011;17437;47.188;8.896;2023-07-13T09:10:14;2.05;;;1.55;;
30677;SDS011;17437;47.188;8.896;2023-07-13T09:12:51;4.00;;;2.30;;
30677;SDS011;17437;47.188;8.896;2023-07-13T09:15:28;3.90;;;2.47;;
30677;SDS011;17437;47.188;8.896;2023-07-13T09:18:02;2.60;;;2.08;;
30677;SDS011;17437;47.188;8.896;2023-07-13T09:20:37;2.72;;;2.00;;
30677;SDS011;17437;47.188;8.896;2023-07-13T09:23:12;2.33;;;2.00;;
30677;SDS011;17437;47.188;8.896;2023-07-13T09:25:47;3.15;;;1.92;;
30677;SDS011;17437;47.188;8.896;2023-07-13T09:28:24;2.60;;;1.92;;
30677;SDS011;17437;47.188;8.896;2023-07-13T09:31:01;2.55;;;2.20;;
30677;SDS011;17437;47.188;8.896;2023-07-13T09:33:35;2.60;;;2.02;;
30677;SDS011;17437;47.188;8.896;2023-07-13T09:36:15;3.70;;;2.30;;
30677;SDS011;17437;47.188;8.896;2023-07-13T09:39:02;5.85;;;2.45;;
30677;SDS011;17437;47.188;8.896;2023-07-13T09:41:33;3.37;;;2.67;;
30677;SDS011;17437;47.188;8.896;2023-07-13T09:44:08;2.00;;;1.67;;
30677;SDS011;17437;47.188;8.896;2023-07-13T09:46:44;2.52;;;1.90;;
30677;SDS011;17437;47.188;8.896;2023-07-13T09:49:18;3.00;;;2.70;;
30677;SDS011;17437;47.188;8.896;2023-07-13T09:51:57;2.42;;;1.82;;
30677;SDS011;17437;47.188;8.896;2023-07-13T09:54:33;2.12;;;1.77;;
30677;SDS011;17437;47.188;8.896;2023-07-13T09:57:11;1.47;;;1.10;;
30677;SDS011;17437;47.188;8.896;2023-07-13T09:59:44;2.08;;;1.52;;
30677;SDS011;17437;47.188;8.896;2023-07-13T10:02:24;1.50;;;1.20;;
30677;SDS011;17437;47.188;8.896;2023-07-13T10:04:59;2.10;;;1.70;;
30677;SDS011;17437;47.188;8.896;2023-07-13T10:07:35;2.27;;;1.50;;
30677;SDS011;17437;47.188;8.896;2023-07-13T10:10:13;2.17;;;1.60;;
30677;SDS011;17437;47.188;8.896;2023-07-13T10:12:47;2.08;;;1.17;;
30677;SDS011;17437;47.188;8.896;2023-07-13T10:15:20;1.90;;;1.40;;
30677;SDS011;17437;47.188;8.896;2023-07-13T10:17:54;2.05;;;1.70;;
30677;SDS011;17437;47.188;8.896;2023-07-13T10:20:27;2.02;;;1.30;;
30677;SDS011;17437;47.188;8.896;2023-07-13T10:23:02;1.85;;;1.60;;
30677;SDS011;17437;47.188;8.896;2023-07-13T10:25:36;2.50;;;1.67;;
30677;SDS011;17437;47.188;8.896;2023-07-13T10:28:13;1.32;;;1.05;;
30677;SDS011;17437;47.188;8.896;2023-07-13T10:30:46;2.05;;;1.40;;
30677;SDS011;17437;47.188;8.896;2023-07-13T10:33:20;1.42;;;1.10;;
30677;SDS011;17437;47.188;8.896;2023-07-13T10:35:54;1.40;;;1.10;;
30677;SDS011;17437;47.188;8.896;2023-07-13T10:38:28;1.62;;;1.10;;
30677;SDS011;17437;47.188;8.896;2023-07-13T10:41:00;6.08;;;4.50;;
30677;SDS011;17437;47.188;8.896;2023-07-13T10:43:35;1.07;;;0.98;;
30677;SDS011;17437;47.188;8.896;2023-07-13T10:49:57;2.52;;;1.35;;
30677;SDS011;17437;47.188;8.896;2023-07-13T10:52:44;1.80;;;1.20;;
30677;SDS011;17437;47.188;8.896;2023-07-13T11:01:04;1.40;;;1.07;;
30677;SDS011;17437;47.188;8.896;2023-07-13T11:03:49;2.27;;;1.60;;
30677;SDS011;17437;47.188;8.896;2023-07-13T11:06:34;2.42;;;1.22;;
30677;SDS011;17437;47.188;8.896;2023-07-13T11:09:33;1.85;;;1.25;;
30677;SDS011;17437;47.188;8.896;2023-07-13T11:12:28;3.27;;;1.77;;
30677;SDS011;17437;47.188;8.896;2023-07-13T11:15:43;3.72;;;2.20;;
30677;SDS011;17437;47.188;8.896;2023-07-13T11:18:22;2.75;;;1.85;;
30677;SDS011;17437;47.188;8.896;2023-07-13T11:21:12;2.45;;;1.82;;
30677;SDS011;17437;47.188;8.896;2023-07-13T11:23:51;4.05;;;2.10;;
30677;SDS011;17437;47.188;8.896;2023-07-13T11:26:39;2.85;;;2.08;;
30677;SDS011;17437;47.188;8.896;2023-07-13T11:29:20;2.75;;;1.67;;
30677;SDS011;17437;47.188;8.896;2023-07-13T11:31:57;2.17;;;1.47;;
30677;SDS011;17437;47.188;8.896;2023-07-13T11:34:33;2.20;;;1.70;;
30677;SDS011;17437;47.188;8.896;2023-07-13T11:37:09;1.50;;;1.40;;
30677;SDS011;17437;47.188;8.896;2023-07-13T11:39:44;2.22;;;1.90;;
30677;SDS011;17437;47.188;8.896;2023-07-13T11:42:18;1.98;;;1.55;;
30677;SDS011;17437;47.188;8.896;2023-07-13T11:45:47;1.72;;;1.42;;
30677;SDS011;17437;47.188;8.896;2023-07-13T11:48:21;2.33;;;1.47;;
30677;SDS011;17437;47.188;8.896;2023-07-13T11:50:57;2.35;;;2.02;;
30677;SDS011;17437;47.188;8.896;2023-07-13T11:53:34;4.17;;;1.47;;
30677;SDS011;17437;47.188;8.896;2023-07-13T11:56:08;2.15;;;1.57;;
30677;SDS011;17437;47.188;8.896;2023-07-13T11:58:41;2.72;;;1.77;;
30677;SDS011;17437;47.188;8.896;2023-07-13T12:01:18;2.08;;;1.87;;
30677;SDS011;17437;47.188;8.896;2023-07-13T12:03:53;2.10;;;1.90;;
30677;SDS011;17437;47.188;8.896;2023-07-13T12:06:27;2.08;;;1.50;;
30677;SDS011;17437;47.188;8.896;2023-07-13T12:09:25;1.72;;;1.45;;
30677;SDS011;17437;47.188;8.896;2023-07-13T12:15:43;1.52;;;1.20;;
30677;SDS011;17437;47.188;8.896;2023-07-13T12:18:18;3.08;;;1.40;;
30677;SDS011;17437;47.188;8.896;2023-07-13T12:20:57;3.77;;;1.70;;
30677;SDS011;17437;47.188;8.896;2023-07-13T12:23:29;2.15;;;1.60;;
30677;SDS011;17437;47.188;8.896;2023-07-13T12:26:04;1.80;;;1.35;;
30677;SDS011;17437;47.188;8.896;2023-07-13T12:28:44;1.30;;;1.05;;
30677;SDS011;17437;47.188;8.896;2023-07-13T12:31:23;3.22;;;1.05;;
30677;SDS011;17437;47.188;8.896;2023-07-13T12:34:07;1.87;;;1.30;;
30677;SDS011;17437;47.188;8.896;2023-07-13T12:36:45;1.80;;;1.20;;
30677;SDS011;17437;47.188;8.896;2023-07-13T12:39:19;1.67;;;1.20;;
30677;SDS011;17437;47.188;8.896;2023-07-13T12:42:00;1.25;;;1.05;;
30677;SDS011;17437;47.188;8.896;2023-07-13T12:44:42;1.72;;;1.15;;
30677;SDS011;17437;47.188;8.896;2023-07-13T12:47:14;1.67;;;1.20;;
30677;SDS011;17437;47.188;8.896;2023-07-13T12:49:54;1.42;;;1.22;;
30677;SDS011;17437;47.188;8.896;2023-07-13T12:52:29;1.75;;;1.40;;
30677;SDS011;17437;47.188;8.896;2023-07-13T12:55:05;4.45;;;1.52;;
30677;SDS011;17437;47.188;8.896;2023-07-13T12:57:50;5.22;;;3.25;;
30677;SDS011;17437;47.188;8.896;2023-07-13T13:00:23;1.50;;;1.27;;
30677;SDS011;17437;47.188;8.896;2023-07-13T13:02:57;3.27;;;1.47;;
30677;SDS011;17437;47.188;8.896;2023-07-13T13:05:33;1.45;;;1.05;;
30677;SDS011;17437;47.188;8.896;2023-07-13T13:08:07;3.58;;;1.77;;
30677;SDS011;17437;47.188;8.896;2023-07-13T13:10:41;2.67;;;1.72;;
30677;SDS011;17437;47.188;8.896;2023-07-13T13:13:20;3.15;;;2.25;;
30677;SDS011;17437;47.188;8.896;2023-07-13T13:15:55;2.17;;;1.80;;
30677;SDS011;17437;47.188;8.896;2023-07-13T13:18:29;3.02;;;2.33;;
30677;SDS011;17437;47.188;8.896;2023-07-13T13:21:05;2.08;;;1.87;;
30677;SDS011;17437;47.188;8.896;2023-07-13T13:23:38;4.78;;;2.65;;
30677;SDS011;17437;47.188;8.896;2023-07-13T13:26:12;2.60;;;1.85;;
30677;SDS011;17437;47.188;8.896;2023-07-13T13:28:46;1.62;;;1.52;;
30677;SDS011;17437;47.188;8.896;2023-07-13T13:31:18;2.62;;;2.25;;
30677;SDS011;17437;47.188;8.896;2023-07-13T13:34:01;2.50;;;1.85;;
30677;SDS011;17437;47.188;8.896;2023-07-13T13:36:36;2.08;;;1.30;;
30677;SDS011;17437;47.188;8.896;2023-07-13T13:45:35;1.53;;;0.90;;
30677;SDS011;17437;47.188;8.896;2023-07-13T13:48:08;1.25;;;0.90;;
30677;SDS011;17437;47.188;8.896;2023-07-13T13:50:46;1.60;;;1.47;;
30677;SDS011;17437;47.188;8.896;2023-07-13T13:53:19;3.30;;;1.10;;
30677;SDS011;17437;47.188;8.896;2023-07-13T13:55:52;1.27;;;1.10;;
30677;SDS011;17437;47.188;8.896;2023-07-13T13:58:25;1.50;;;1.10;;
30677;SDS011;17437;47.188;8.896;2023-07-13T14:00:57;2.80;;;1.10;;
30677;SDS011;17437;47.188;8.896;2023-07-13T14:03:30;1.12;;;1.00;;
30677;SDS011;17437;47.188;8.896;2023-07-13T14:06:38;3.92;;;2.25;;
30677;SDS011;17437;47.188;8.896;2023-07-13T14:09:12;1.20;;;1.05;;
30677;SDS011;17437;47.188;8.896;2023-07-13T14:11:53;1.65;;;1.07;;
30677;SDS011;17437;47.188;8.896;2023-07-13T14:14:33;1.12;;;0.90;;
30677;SDS011;17437;47.188;8.896;2023-07-13T14:17:02;1.12;;;0.80;;
30677;SDS011;17437;47.188;8.896;2023-07-13T14:19:38;1.22;;;1.05;;
30677;SDS011;17437;47.188;8.896;2023-07-13T14:22:11;1.85;;;0.85;;
30677;SDS011;17437;47.188;8.896;2023-07-13T14:24:43;1.60;;;0.93;;
30677;SDS011;17437;47.188;8.896;2023-07-13T14:27:15;1.85;;;1.17;;
30677;SDS011;17437;47.188;8.896;2023-07-13T14:29:49;1.10;;;0.95;;
30677;SDS011;17437;47.188;8.896;2023-07-13T14:33:00;1.32;;;0.78;;
30677;SDS011;17437;47.188;8.896;2023-07-13T14:35:53;2.83;;;1.20;;
30677;SDS011;17437;47.188;8.896;2023-07-13T14:38:46;1.45;;;1.35;;
30677;SDS011;17437;47.188;8.896;2023-07-13T14:41:49;2.58;;;1.82;;
30677;SDS011;17437;47.188;8.896;2023-07-13T14:44:24;4.00;;;1.98;;
30677;SDS011;17437;47.188;8.896;2023-07-13T14:47:02;2.47;;;2.27;;
30677;SDS011;17437;47.188;8.896;2023-07-13T14:49:37;2.10;;;1.90;;
30677;SDS011;17437;47.188;8.896;2023-07-13T14:57:55;3.47;;;1.82;;
30677;SDS011;17437;47.188;8.896;2023-07-13T15:00:30;2.60;;;1.80;;
30677;SDS011;17437;47.188;8.896;2023-07-13T15:03:02;1.60;;;1.30;;
30677;SDS011;17437;47.188;8.896;2023-07-13T15:05:36;1.35;;;1.12;;
30677;SDS011;17437;47.188;8.896;2023-07-13T15:08:09;1.95;;;1.25;;
30677;SDS011;17437;47.188;8.896;2023-07-13T15:10:45;1.98;;;0.90;;
30677;SDS011;17437;47.188;8.896;2023-07-13T15:13:19;1.40;;;1.00;;
30677;SDS011;17437;47.188;8.896;2023-07-13T15:15:52;2.67;;;1.55;;
30677;SDS011;17437;47.188;8.896;2023-07-13T15:18:25;1.35;;;1.00;;
30677;SDS011;17437;47.188;8.896;2023-07-13T15:20:57;2.30;;;1.00;;
30677;SDS011;17437;47.188;8.896;2023-07-13T15:23:32;2.52;;;0.80;;
30677;SDS011;17437;47.188;8.896;2023-07-13T15:26:04;7.10;;;2.22;;
30677;SDS011;17437;47.188;8.896;2023-07-13T15:28:38;1.98;;;1.32;;
30677;SDS011;17437;47.188;8.896;2023-07-13T15:34:10;1.80;;;1.10;;
30677;SDS011;17437;47.188;8.896;2023-07-13T15:36:49;2.25;;;1.98;;
30677;SDS011;17437;47.188;8.896;2023-07-13T15:39:21;1.67;;;1.12;;
30677;SDS011;17437;47.188;8.896;2023-07-13T15:44:50;1.00;;;0.90;;
30677;SDS011;17437;47.188;8.896;2023-07-13T15:47:22;1.12;;;1.02;;
30677;SDS011;17437;47.188;8.896;2023-07-13T15:49:55;2.40;;;1.62;;
30677;SDS011;17437;47.188;8.896;2023-07-13T15:52:27;1.27;;;1.05;;
30677;SDS011;17437;47.188;8.896;2023-07-13T15:55:02;2.98;;;1.67;;
30677;SDS011;17437;47.188;8.896;2023-07-13T15:57:34;2.17;;;1.70;;
30677;SDS011;17437;47.188;8.896;2023-07-13T16:00:14;2.52;;;2.20;;
30677;SDS011;17437;47.188;8.896;2023-07-13T16:02:58;2.95;;;1.50;;
30677;SDS011;17437;47.188;8.896;2023-07-13T16:05:31;3.70;;;1.50;;
30677;SDS011;17437;47.188;8.896;2023-07-13T16:08:04;1.30;;;1.10;;